Terminal Aerodrome Forecast
Issued by NWS Jacksonville, FL

Home | Current Version | Previous Version | Text Only | Print | Product List | Glossary On
Versions: 1 2 3 4 5 6 7 8 9 10 11 12 13 14 15 16 17 18 19 20 21 22 23 24 25 26 27 28 29 30 31 32 33 34 35
000
FTUS42 KJAX 180200 AAA
TAFJAX
TAF AMD
KJAX 180212Z 1802/1824 06013G21KT P6SM SCT015 OVC025
      TEMPO 1802/1803 -SHRA SCT008 OVC015
     FM180300 06012G20KT P6SM OVC015
      TEMPO 1803/1805 5SM -SHRA OVC008
     FM181400 08016G25KT 5SM -RA BR OVC009
     FM181900 11016G25KT 2SM RA BR OVC007=

USA.gov is the U.S. government's official web portal to all federal, state and local government web resources and services.